Terminal Aerodrome Forecast
Issued by NWS

Home | Current Version | Previous Version | Text Only | Print | Product List | Glossary On
Versions: 1 2 3 4 5 6 7 8 9 10 11 12 13 14 15 16 17 18 19 20
000
FTUS44 KBMX 202322
TAFTCL
TAF
KTCL 202322Z 2100/2124 13005KT P6SM BKN250
     FM210600 12006KT P6SM OVC100
     FM211200 13009KT P6SM OVC050
     FM211600 13010KT 5SM -RA OVC025=

USA.gov is the U.S. government's official web portal to all federal, state and local government web resources and services.